sensor_id;sensor_type;location;lat;lon;timestamp;temperature;humidity
55777;DHT22;54079;44.540;18.784;2023-12-04T00:01:35;-2.20;89.80
55777;DHT22;54079;44.540;18.784;2023-12-04T00:04:01;-2.00;88.20
55777;DHT22;54079;44.540;18.784;2023-12-04T00:06:27;-2.10;86.90
55777;DHT22;54079;44.540;18.784;2023-12-04T00:08:53;-2.00;87.60
55777;DHT22;54079;44.540;18.784;2023-12-04T00:11:19;-2.20;87.10
55777;DHT22;54079;44.540;18.784;2023-12-04T00:13:45;-2.30;87.30
55777;DHT22;54079;44.540;18.784;2023-12-04T00:16:11;-2.10;89.20
55777;DHT22;54079;44.540;18.784;2023-12-04T00:18:37;-2.10;88.50
55777;DHT22;54079;44.540;18.784;2023-12-04T00:21:03;-1.90;88.50
55777;DHT22;54079;44.540;18.784;2023-12-04T00:23:29;-2.00;86.90
55777;DHT22;54079;44.540;18.784;2023-12-04T00:25:55;-2.00;87.70
55777;DHT22;54079;44.540;18.784;2023-12-04T00:28:21;-2.00;88.00
55777;DHT22;54079;44.540;18.784;2023-12-04T00:30:47;-2.00;88.30
55777;DHT22;54079;44.540;18.784;2023-12-04T00:33:13;-2.10;88.30
55777;DHT22;54079;44.540;18.784;2023-12-04T00:35:39;-2.30;87.30
55777;DHT22;54079;44.540;18.784;2023-12-04T00:38:05;-2.30;88.00
55777;DHT22;54079;44.540;18.784;2023-12-04T00:40:31;-2.50;88.90
55777;DHT22;54079;44.540;18.784;2023-12-04T00:42:57;-2.40;88.20
55777;DHT22;54079;44.540;18.784;2023-12-04T00:45:23;-2.30;87.20
55777;DHT22;54079;44.540;18.784;2023-12-04T00:47:50;-2.20;88.80
55777;DHT22;54079;44.540;18.784;2023-12-04T00:50:15;-2.10;89.30
55777;DHT22;54079;44.540;18.784;2023-12-04T00:52:42;-2.10;87.90
55777;DHT22;54079;44.540;18.784;2023-12-04T00:55:08;-2.30;88.20
55777;DHT22;54079;44.540;18.784;2023-12-04T00:57:33;-2.30;88.50
55777;DHT22;54079;44.540;18.784;2023-12-04T01:00:00;-2.30;86.90
55777;DHT22;54079;44.540;18.784;2023-12-04T01:02:26;-2.20;88.30
55777;DHT22;54079;44.540;18.784;2023-12-04T01:04:52;-2.10;89.80
55777;DHT22;54079;44.540;18.784;2023-12-04T01:07:17;-2.00;90.10
55777;DHT22;54079;44.540;18.784;2023-12-04T01:09:43;-1.80;89.90
55777;DHT22;54079;44.540;18.784;2023-12-04T01:12:09;-1.80;89.90
55777;DHT22;54079;44.540;18.784;2023-12-04T01:14:35;-1.90;87.90
55777;DHT22;54079;44.540;18.784;2023-12-04T01:17:04;-2.00;86.10
55777;DHT22;54079;44.540;18.784;2023-12-04T01:19:30;-2.20;90.00
55777;DHT22;54079;44.540;18.784;2023-12-04T01:21:56;-2.10;88.80
55777;DHT22;54079;44.540;18.784;2023-12-04T01:24:22;-2.00;89.20
55777;DHT22;54079;44.540;18.784;2023-12-04T01:26:48;-1.90;88.60
55777;DHT22;54079;44.540;18.784;2023-12-04T01:29:14;-2.00;88.50
55777;DHT22;54079;44.540;18.784;2023-12-04T01:31:40;-2.10;89.70
55777;DHT22;54079;44.540;18.784;2023-12-04T01:34:06;-1.90;89.40
55777;DHT22;54079;44.540;18.784;2023-12-04T01:36:31;-1.90;88.30
55777;DHT22;54079;44.540;18.784;2023-12-04T01:38:57;-1.80;88.50
55777;DHT22;54079;44.540;18.784;2023-12-04T01:41:23;-1.90;88.90
55777;DHT22;54079;44.540;18.784;2023-12-04T01:43:49;-1.80;89.70
55777;DHT22;54079;44.540;18.784;2023-12-04T01:46:17;-1.80;87.90
55777;DHT22;54079;44.540;18.784;2023-12-04T01:48:45;-1.90;86.40
55777;DHT22;54079;44.540;18.784;2023-12-04T01:51:13;-2.00;86.70
55777;DHT22;54079;44.540;18.784;2023-12-04T01:53:39;-2.10;87.40
55777;DHT22;54079;44.540;18.784;2023-12-04T01:56:06;-2.20;88.40
55777;DHT22;54079;44.540;18.784;2023-12-04T01:58:33;-2.20;89.70
55777;DHT22;54079;44.540;18.784;2023-12-04T02:00:59;-2.50;88.10
55777;DHT22;54079;44.540;18.784;2023-12-04T02:03:25;-2.50;88.10
55777;DHT22;54079;44.540;18.784;2023-12-04T02:05:52;-2.50;88.40
55777;DHT22;54079;44.540;18.784;2023-12-04T02:08:18;-2.50;88.40
55777;DHT22;54079;44.540;18.784;2023-12-04T02:10:44;-2.60;89.10
55777;DHT22;54079;44.540;18.784;2023-12-04T02:13:11;-2.50;89.90
55777;DHT22;54079;44.540;18.784;2023-12-04T02:15:37;-2.40;90.40
55777;DHT22;54079;44.540;18.784;2023-12-04T02:18:03;-2.30;89.30
55777;DHT22;54079;44.540;18.784;2023-12-04T02:20:33;-2.30;88.20
55777;DHT22;54079;44.540;18.784;2023-12-04T02:23:03;-2.30;89.30
55777;DHT22;54079;44.540;18.784;2023-12-04T02:25:30;-2.60;88.60
55777;DHT22;54079;44.540;18.784;2023-12-04T02:27:59;-2.60;88.70
55777;DHT22;54079;44.540;18.784;2023-12-04T02:30:29;-2.70;87.50
55777;DHT22;54079;44.540;18.784;2023-12-04T02:32:57;-2.50;90.00
55777;DHT22;54079;44.540;18.784;2023-12-04T02:35:27;-2.40;89.90
55777;DHT22;54079;44.540;18.784;2023-12-04T02:37:55;-2.50;89.20
55777;DHT22;54079;44.540;18.784;2023-12-04T02:40:24;-2.60;89.10
55777;DHT22;54079;44.540;18.784;2023-12-04T02:42:51;-2.60;88.20
55777;DHT22;54079;44.540;18.784;2023-12-04T02:45:17;-2.60;90.00
55777;DHT22;54079;44.540;18.784;2023-12-04T02:47:43;-2.50;90.00
55777;DHT22;54079;44.540;18.784;2023-12-04T02:50:09;-2.60;90.00
55777;DHT22;54079;44.540;18.784;2023-12-04T02:52:35;-2.60;88.70
55777;DHT22;54079;44.540;18.784;2023-12-04T02:55:00;-2.60;88.50
55777;DHT22;54079;44.540;18.784;2023-12-04T02:57:26;-2.60;89.90
55777;DHT22;54079;44.540;18.784;2023-12-04T02:59:53;-2.40;90.40
55777;DHT22;54079;44.540;18.784;2023-12-04T03:02:19;-2.30;90.30
55777;DHT22;54079;44.540;18.784;2023-12-04T03:04:46;-2.10;89.80
55777;DHT22;54079;44.540;18.784;2023-12-04T03:07:12;-2.20;89.10
55777;DHT22;54079;44.540;18.784;2023-12-04T03:09:38;-2.30;89.70
55777;DHT22;54079;44.540;18.784;2023-12-04T03:12:04;-2.30;89.70
55777;DHT22;54079;44.540;18.784;2023-12-04T03:14:30;-2.10;89.90
55777;DHT22;54079;44.540;18.784;2023-12-04T03:16:56;-2.20;88.70
55777;DHT22;54079;44.540;18.784;2023-12-04T03:19:22;-2.30;87.80
55777;DHT22;54079;44.540;18.784;2023-12-04T03:21:48;-2.40;87.90
55777;DHT22;54079;44.540;18.784;2023-12-04T03:24:14;-2.50;89.10
55777;DHT22;54079;44.540;18.784;2023-12-04T03:26:40;-2.50;87.50
55777;DHT22;54079;44.540;18.784;2023-12-04T03:29:06;-2.70;89.30
55777;DHT22;54079;44.540;18.784;2023-12-04T03:31:32;-2.90;89.30
55777;DHT22;54079;44.540;18.784;2023-12-04T03:33:59;-2.80;89.10
55777;DHT22;54079;44.540;18.784;2023-12-04T03:36:26;-2.80;90.00
55777;DHT22;54079;44.540;18.784;2023-12-04T03:38:52;-2.60;90.10
55777;DHT22;54079;44.540;18.784;2023-12-04T03:41:17;-2.60;89.30
55777;DHT22;54079;44.540;18.784;2023-12-04T03:43:43;-2.70;88.40
55777;DHT22;54079;44.540;18.784;2023-12-04T03:46:09;-2.80;89.30
55777;DHT22;54079;44.540;18.784;2023-12-04T03:48:35;-2.90;89.80
55777;DHT22;54079;44.540;18.784;2023-12-04T03:51:01;-2.90;90.20
55777;DHT22;54079;44.540;18.784;2023-12-04T03:53:27;-2.80;89.40
55777;DHT22;54079;44.540;18.784;2023-12-04T03:55:53;-2.80;88.30
55777;DHT22;54079;44.540;18.784;2023-12-04T03:58:19;-2.90;88.90
55777;DHT22;54079;44.540;18.784;2023-12-04T04:00:45;-3.20;90.60
55777;DHT22;54079;44.540;18.784;2023-12-04T04:03:11;-3.00;91.20
55777;DHT22;54079;44.540;18.784;2023-12-04T04:05:37;-2.70;91.40
55777;DHT22;54079;44.540;18.784;2023-12-04T04:08:03;-2.70;90.60
55777;DHT22;54079;44.540;18.784;2023-12-04T04:10:30;-2.80;89.70
55777;DHT22;54079;44.540;18.784;2023-12-04T04:12:57;-2.80;90.20
55777;DHT22;54079;44.540;18.784;2023-12-04T04:15:24;-2.80;90.50
55777;DHT22;54079;44.540;18.784;2023-12-04T04:17:50;-2.70;90.00
55777;DHT22;54079;44.540;18.784;2023-12-04T04:20:16;-2.90;90.50
55777;DHT22;54079;44.540;18.784;2023-12-04T04:22:43;-2.90;90.70
55777;DHT22;54079;44.540;18.784;2023-12-04T04:25:09;-2.70;90.70
55777;DHT22;54079;44.540;18.784;2023-12-04T04:27:35;-2.70;90.00
55777;DHT22;54079;44.540;18.784;2023-12-04T04:30:02;-2.90;89.80
55777;DHT22;54079;44.540;18.784;2023-12-04T04:32:27;-2.90;90.30
55777;DHT22;54079;44.540;18.784;2023-12-04T04:34:53;-2.80;89.10
55777;DHT22;54079;44.540;18.784;2023-12-04T04:37:20;-3.00;89.90
55777;DHT22;54079;44.540;18.784;2023-12-04T04:39:46;-3.10;90.50
55777;DHT22;54079;44.540;18.784;2023-12-04T04:42:11;-3.00;90.90
55777;DHT22;54079;44.540;18.784;2023-12-04T04:44:37;-2.80;90.90
55777;DHT22;54079;44.540;18.784;2023-12-04T04:47:04;-2.80;90.50
55777;DHT22;54079;44.540;18.784;2023-12-04T04:49:29;-2.80;89.30
55777;DHT22;54079;44.540;18.784;2023-12-04T04:51:55;-2.80;88.80
55777;DHT22;54079;44.540;18.784;2023-12-04T04:54:21;-2.90;90.10
55777;DHT22;54079;44.540;18.784;2023-12-04T04:56:47;-3.00;89.80
55777;DHT22;54079;44.540;18.784;2023-12-04T04:59:13;-3.10;90.10
55777;DHT22;54079;44.540;18.784;2023-12-04T05:01:39;-3.10;90.10
55777;DHT22;54079;44.540;18.784;2023-12-04T05:04:05;-3.00;90.20
55777;DHT22;54079;44.540;18.784;2023-12-04T05:06:31;-3.00;90.00
55777;DHT22;54079;44.540;18.784;2023-12-04T05:08:57;-2.90;91.40
55777;DHT22;54079;44.540;18.784;2023-12-04T05:11:23;-2.80;90.80
55777;DHT22;54079;44.540;18.784;2023-12-04T05:13:49;-2.70;90.40
55777;DHT22;54079;44.540;18.784;2023-12-04T05:16:15;-2.80;90.20
55777;DHT22;54079;44.540;18.784;2023-12-04T05:18:41;-2.70;90.70
55777;DHT22;54079;44.540;18.784;2023-12-04T05:21:11;-2.60;90.30
55777;DHT22;54079;44.540;18.784;2023-12-04T05:23:38;-2.70;90.20
55777;DHT22;54079;44.540;18.784;2023-12-04T05:26:05;-2.70;90.30
55777;DHT22;54079;44.540;18.784;2023-12-04T05:28:31;-2.60;91.10
55777;DHT22;54079;44.540;18.784;2023-12-04T05:30:58;-2.40;91.70
55777;DHT22;54079;44.540;18.784;2023-12-04T05:33:24;-2.30;92.20
55777;DHT22;54079;44.540;18.784;2023-12-04T05:35:50;-2.30;90.10
55777;DHT22;54079;44.540;18.784;2023-12-04T05:38:19;-2.30;91.10
55777;DHT22;54079;44.540;18.784;2023-12-04T05:40:45;-2.20;90.90
55777;DHT22;54079;44.540;18.784;2023-12-04T05:43:11;-2.10;90.90
55777;DHT22;54079;44.540;18.784;2023-12-04T05:45:38;-1.90;88.60
55777;DHT22;54079;44.540;18.784;2023-12-04T05:48:04;-1.90;89.90
55777;DHT22;54079;44.540;18.784;2023-12-04T05:50:30;-2.00;88.10
55777;DHT22;54079;44.540;18.784;2023-12-04T05:52:56;-2.20;87.70
55777;DHT22;54079;44.540;18.784;2023-12-04T05:55:22;-2.20;88.40
55777;DHT22;54079;44.540;18.784;2023-12-04T05:57:48;-2.20;87.70
55777;DHT22;54079;44.540;18.784;2023-12-04T06:00:14;-2.30;87.80
55777;DHT22;54079;44.540;18.784;2023-12-04T06:02:42;-2.30;88.40
55777;DHT22;54079;44.540;18.784;2023-12-04T06:05:09;-2.30;88.80
55777;DHT22;54079;44.540;18.784;2023-12-04T06:07:36;-2.30;89.50
55777;DHT22;54079;44.540;18.784;2023-12-04T06:10:03;-2.20;90.10
55777;DHT22;54079;44.540;18.784;2023-12-04T06:12:32;-2.00;88.00
55777;DHT22;54079;44.540;18.784;2023-12-04T06:14:58;-1.80;87.10
55777;DHT22;54079;44.540;18.784;2023-12-04T06:17:25;-1.60;86.50
55777;DHT22;54079;44.540;18.784;2023-12-04T06:19:52;-1.40;84.70
55777;DHT22;54079;44.540;18.784;2023-12-04T06:22:18;-1.30;83.60
55777;DHT22;54079;44.540;18.784;2023-12-04T06:24:50;-1.20;84.10
55777;DHT22;54079;44.540;18.784;2023-12-04T06:27:17;-1.20;83.70
55777;DHT22;54079;44.540;18.784;2023-12-04T06:29:47;-1.10;83.60
55777;DHT22;54079;44.540;18.784;2023-12-04T06:32:13;-1.00;82.20
55777;DHT22;54079;44.540;18.784;2023-12-04T06:34:40;-1.00;82.10
55777;DHT22;54079;44.540;18.784;2023-12-04T06:37:13;-0.90;82.90
55777;DHT22;54079;44.540;18.784;2023-12-04T06:39:40;-0.90;82.20
55777;DHT22;54079;44.540;18.784;2023-12-04T06:42:11;-0.90;82.20
55777;DHT22;54079;44.540;18.784;2023-12-04T06:44:38;-0.90;82.30
55777;DHT22;54079;44.540;18.784;2023-12-04T06:47:04;-0.90;83.50
55777;DHT22;54079;44.540;18.784;2023-12-04T06:49:33;-1.00;83.10
55777;DHT22;54079;44.540;18.784;2023-12-04T06:52:00;-0.80;83.90
55777;DHT22;54079;44.540;18.784;2023-12-04T06:54:26;-0.80;82.00
55777;DHT22;54079;44.540;18.784;2023-12-04T06:56:52;-0.70;82.30
55777;DHT22;54079;44.540;18.784;2023-12-04T06:59:26;-0.50;81.20
55777;DHT22;54079;44.540;18.784;2023-12-04T07:01:56;-0.60;80.20
55777;DHT22;54079;44.540;18.784;2023-12-04T07:04:22;-0.40;80.90
55777;DHT22;54079;44.540;18.784;2023-12-04T07:06:48;-0.40;80.30
55777;DHT22;54079;44.540;18.784;2023-12-04T07:09:15;-0.30;79.00
55777;DHT22;54079;44.540;18.784;2023-12-04T07:11:43;-0.20;79.60
55777;DHT22;54079;44.540;18.784;2023-12-04T07:14:10;-0.10;79.90
55777;DHT22;54079;44.540;18.784;2023-12-04T07:16:42;-0.30;78.80
55777;DHT22;54079;44.540;18.784;2023-12-04T07:19:09;-0.30;79.10
55777;DHT22;54079;44.540;18.784;2023-12-04T07:21:36;-0.20;79.30
55777;DHT22;54079;44.540;18.784;2023-12-04T07:24:03;-0.30;79.20
55777;DHT22;54079;44.540;18.784;2023-12-04T07:26:30;-0.20;80.00
55777;DHT22;54079;44.540;18.784;2023-12-04T07:28:57;-0.10;79.70
55777;DHT22;54079;44.540;18.784;2023-12-04T07:31:23;-0.10;79.10
55777;DHT22;54079;44.540;18.784;2023-12-04T07:33:49;-0.40;78.60
55777;DHT22;54079;44.540;18.784;2023-12-04T07:36:15;-0.30;79.60
55777;DHT22;54079;44.540;18.784;2023-12-04T07:38:41;0.00;79.40
55777;DHT22;54079;44.540;18.784;2023-12-04T07:41:07;0.30;77.80
55777;DHT22;54079;44.540;18.784;2023-12-04T07:43:33;1.20;77.90
55777;DHT22;54079;44.540;18.784;2023-12-04T07:45:59;5.40;70.20
55777;DHT22;54079;44.540;18.784;2023-12-04T07:48:26;6.90;63.20
55777;DHT22;54079;44.540;18.784;2023-12-04T07:50:51;9.30;60.80
55777;DHT22;54079;44.540;18.784;2023-12-04T07:53:17;10.80;57.50
55777;DHT22;54079;44.540;18.784;2023-12-04T07:55:44;13.90;53.50
55777;DHT22;54079;44.540;18.784;2023-12-04T07:58:12;17.20;51.20
55777;DHT22;54079;44.540;18.784;2023-12-04T08:00:38;19.10;45.50
55777;DHT22;54079;44.540;18.784;2023-12-04T08:03:04;20.80;43.10
55777;DHT22;54079;44.540;18.784;2023-12-04T08:05:30;21.70;42.30
55777;DHT22;54079;44.540;18.784;2023-12-04T08:07:57;22.60;42.40
55777;DHT22;54079;44.540;18.784;2023-12-04T08:10:23;22.90;40.90
55777;DHT22;54079;44.540;18.784;2023-12-04T08:12:49;22.60;39.00
55777;DHT22;54079;44.540;18.784;2023-12-04T08:15:15;23.80;38.70
55777;DHT22;54079;44.540;18.784;2023-12-04T08:17:41;23.80;39.60
55777;DHT22;54079;44.540;18.784;2023-12-04T08:20:07;23.30;38.20
55777;DHT22;54079;44.540;18.784;2023-12-04T08:22:41;24.40;38.80
55777;DHT22;54079;44.540;18.784;2023-12-04T08:25:09;24.70;38.20
55777;DHT22;54079;44.540;18.784;2023-12-04T08:27:35;24.50;38.00
55777;DHT22;54079;44.540;18.784;2023-12-04T08:30:01;24.70;37.40
55777;DHT22;54079;44.540;18.784;2023-12-04T08:32:28;23.60;37.50
55777;DHT22;54079;44.540;18.784;2023-12-04T08:34:54;23.80;38.00
55777;DHT22;54079;44.540;18.784;2023-12-04T08:37:22;23.40;37.40
55777;DHT22;54079;44.540;18.784;2023-12-04T08:39:48;23.60;37.70
55777;DHT22;54079;44.540;18.784;2023-12-04T08:42:14;23.60;37.60
55777;DHT22;54079;44.540;18.784;2023-12-04T08:44:40;24.60;36.30
55777;DHT22;54079;44.540;18.784;2023-12-04T08:47:06;24.10;38.20
55777;DHT22;54079;44.540;18.784;2023-12-04T08:49:32;24.20;39.20
55777;DHT22;54079;44.540;18.784;2023-12-04T08:51:59;23.60;36.20
55777;DHT22;54079;44.540;18.784;2023-12-04T08:54:25;23.40;37.90
55777;DHT22;54079;44.540;18.784;2023-12-04T08:56:51;21.40;36.30
55777;DHT22;54079;44.540;18.784;2023-12-04T08:59:17;20.90;37.90
55777;DHT22;54079;44.540;18.784;2023-12-04T09:01:43;20.80;36.80
55777;DHT22;54079;44.540;18.784;2023-12-04T09:04:09;20.70;38.60
55777;DHT22;54079;44.540;18.784;2023-12-04T09:06:36;17.00;38.30
55777;DHT22;54079;44.540;18.784;2023-12-04T09:09:02;14.90;41.50
55777;DHT22;54079;44.540;18.784;2023-12-04T09:11:28;13.60;44.40
55777;DHT22;54079;44.540;18.784;2023-12-04T09:13:54;11.30;45.00
55777;DHT22;54079;44.540;18.784;2023-12-04T09:16:20;11.00;48.70
55777;DHT22;54079;44.540;18.784;2023-12-04T09:18:46;10.90;50.30
55777;DHT22;54079;44.540;18.784;2023-12-04T09:21:14;10.10;50.10
55777;DHT22;54079;44.540;18.784;2023-12-04T09:23:40;9.20;48.50
55777;DHT22;54079;44.540;18.784;2023-12-04T09:26:06;8.20;49.40
55777;DHT22;54079;44.540;18.784;2023-12-04T09:28:32;7.10;50.50
55777;DHT22;54079;44.540;18.784;2023-12-04T09:30:58;6.20;51.60
55777;DHT22;54079;44.540;18.784;2023-12-04T09:33:24;5.50;54.20
55777;DHT22;54079;44.540;18.784;2023-12-04T09:35:50;5.50;54.40
55777;DHT22;54079;44.540;18.784;2023-12-04T09:38:16;5.50;58.30
55777;DHT22;54079;44.540;18.784;2023-12-04T09:40:42;5.40;57.30
55777;DHT22;54079;44.540;18.784;2023-12-04T09:43:08;5.60;58.70
55777;DHT22;54079;44.540;18.784;2023-12-04T09:45:35;5.60;56.30
55777;DHT22;54079;44.540;18.784;2023-12-04T09:48:02;5.60;55.20
55777;DHT22;54079;44.540;18.784;2023-12-04T09:50:28;4.90;54.60
55777;DHT22;54079;44.540;18.784;2023-12-04T09:52:55;5.20;59.30
55777;DHT22;54079;44.540;18.784;2023-12-04T09:55:23;4.90;58.50
55777;DHT22;54079;44.540;18.784;2023-12-04T09:57:49;5.00;60.30
55777;DHT22;54079;44.540;18.784;2023-12-04T10:00:16;5.30;61.70
55777;DHT22;54079;44.540;18.784;2023-12-04T10:02:42;5.40;59.60
55777;DHT22;54079;44.540;18.784;2023-12-04T10:05:09;5.10;57.50
55777;DHT22;54079;44.540;18.784;2023-12-04T10:07:35;4.90;58.00
55777;DHT22;54079;44.540;18.784;2023-12-04T10:10:05;5.20;60.80
55777;DHT22;54079;44.540;18.784;2023-12-04T10:12:32;5.10;58.40
55777;DHT22;54079;44.540;18.784;2023-12-04T10:15:06;4.70;58.00
55777;DHT22;54079;44.540;18.784;2023-12-04T10:17:50;4.50;58.50
55777;DHT22;54079;44.540;18.784;2023-12-04T10:20:17;4.80;62.10
55777;DHT22;54079;44.540;18.784;2023-12-04T10:22:57;5.10;64.10
55777;DHT22;54079;44.540;18.784;2023-12-04T10:25:25;5.40;62.10
55777;DHT22;54079;44.540;18.784;2023-12-04T10:27:53;5.60;60.70
55777;DHT22;54079;44.540;18.784;2023-12-04T10:30:24;5.30;59.40
55777;DHT22;54079;44.540;18.784;2023-12-04T10:32:54;5.50;59.60
55777;DHT22;54079;44.540;18.784;2023-12-04T10:35:21;5.60;62.40
55777;DHT22;54079;44.540;18.784;2023-12-04T10:37:49;5.00;58.00
55777;DHT22;54079;44.540;18.784;2023-12-04T10:40:28;4.90;58.80
55777;DHT22;54079;44.540;18.784;2023-12-04T10:43:17;5.20;61.50
55777;DHT22;54079;44.540;18.784;2023-12-04T10:45:44;5.40;60.90
55777;DHT22;54079;44.540;18.784;2023-12-04T10:48:12;5.50;61.40
55777;DHT22;54079;44.540;18.784;2023-12-04T10:50:40;5.30;56.80
55777;DHT22;54079;44.540;18.784;2023-12-04T10:53:11;5.50;59.40
55777;DHT22;54079;44.540;18.784;2023-12-04T10:55:39;5.30;58.90
55777;DHT22;54079;44.540;18.784;2023-12-04T10:58:10;5.40;60.50
55777;DHT22;54079;44.540;18.784;2023-12-04T11:00:42;5.60;60.00
55777;DHT22;54079;44.540;18.784;2023-12-04T11:03:09;5.70;58.30
55777;DHT22;54079;44.540;18.784;2023-12-04T11:05:40;5.60;57.70
55777;DHT22;54079;44.540;18.784;2023-12-04T11:08:11;5.70;60.80
55777;DHT22;54079;44.540;18.784;2023-12-04T11:11:03;5.70;57.90
55777;DHT22;54079;44.540;18.784;2023-12-04T11:13:35;5.70;56.00
55777;DHT22;54079;44.540;18.784;2023-12-04T11:16:15;5.80;56.30
55777;DHT22;54079;44.540;18.784;2023-12-04T11:18:48;6.00;55.70
55777;DHT22;54079;44.540;18.784;2023-12-04T11:21:16;5.70;53.00
55777;DHT22;54079;44.540;18.784;2023-12-04T11:23:44;5.80;53.40
55777;DHT22;54079;44.540;18.784;2023-12-04T11:26:11;5.80;52.70
55777;DHT22;54079;44.540;18.784;2023-12-04T11:28:38;5.80;52.80
55777;DHT22;54079;44.540;18.784;2023-12-04T11:31:05;5.60;52.70
55777;DHT22;54079;44.540;18.784;2023-12-04T11:33:36;5.70;51.90
55777;DHT22;54079;44.540;18.784;2023-12-04T11:36:08;5.50;51.70
55777;DHT22;54079;44.540;18.784;2023-12-04T11:38:35;5.50;51.90
55777;DHT22;54079;44.540;18.784;2023-12-04T11:41:21;5.20;50.00
55777;DHT22;54079;44.540;18.784;2023-12-04T11:43:47;5.40;53.20
55777;DHT22;54079;44.540;18.784;2023-12-04T11:46:29;5.70;50.80
55777;DHT22;54079;44.540;18.784;2023-12-04T11:49:31;5.60;50.50
55777;DHT22;54079;44.540;18.784;2023-12-04T11:51:59;5.70;52.30
55777;DHT22;54079;44.540;18.784;2023-12-04T11:54:27;5.90;51.30
55777;DHT22;54079;44.540;18.784;2023-12-04T11:57:01;6.10;49.50
55777;DHT22;54079;44.540;18.784;2023-12-04T11:59:45;5.90;49.00
55777;DHT22;54079;44.540;18.784;2023-12-04T12:02:11;6.20;50.80
55777;DHT22;54079;44.540;18.784;2023-12-04T12:04:37;6.00;50.60
55777;DHT22;54079;44.540;18.784;2023-12-04T12:07:05;5.70;50.70
55777;DHT22;54079;44.540;18.784;2023-12-04T12:09:33;5.90;53.00
55777;DHT22;54079;44.540;18.784;2023-12-04T12:12:01;6.00;52.00
55777;DHT22;54079;44.540;18.784;2023-12-04T12:14:28;5.70;51.10
55777;DHT22;54079;44.540;18.784;2023-12-04T12:16:59;5.60;52.40
55777;DHT22;54079;44.540;18.784;2023-12-04T12:19:25;5.80;52.70
55777;DHT22;54079;44.540;18.784;2023-12-04T12:21:51;5.60;51.30
55777;DHT22;54079;44.540;18.784;2023-12-04T12:24:18;5.70;52.50
55777;DHT22;54079;44.540;18.784;2023-12-04T12:26:47;6.00;52.50
55777;DHT22;54079;44.540;18.784;2023-12-04T12:29:13;5.90;51.20
55777;DHT22;54079;44.540;18.784;2023-12-04T12:31:39;5.90;51.50
55777;DHT22;54079;44.540;18.784;2023-12-04T12:34:05;5.70;51.70
55777;DHT22;54079;44.540;18.784;2023-12-04T12:36:32;5.30;51.60
55777;DHT22;54079;44.540;18.784;2023-12-04T12:39:01;5.30;52.30
55777;DHT22;54079;44.540;18.784;2023-12-04T12:41:29;5.40;52.20
55777;DHT22;54079;44.540;18.784;2023-12-04T12:43:55;5.60;52.90
55777;DHT22;54079;44.540;18.784;2023-12-04T12:46:22;5.80;53.90
55777;DHT22;54079;44.540;18.784;2023-12-04T12:48:48;5.50;51.90
55777;DHT22;54079;44.540;18.784;2023-12-04T12:51:14;5.50;52.70
55777;DHT22;54079;44.540;18.784;2023-12-04T12:53:40;5.60;53.30
55777;DHT22;54079;44.540;18.784;2023-12-04T12:56:07;5.70;53.00
55777;DHT22;54079;44.540;18.784;2023-12-04T12:58:33;5.90;52.80
55777;DHT22;54079;44.540;18.784;2023-12-04T13:01:00;6.10;52.60
55777;DHT22;54079;44.540;18.784;2023-12-04T13:03:28;6.20;51.70
55777;DHT22;54079;44.540;18.784;2023-12-04T13:05:57;6.20;52.50
55777;DHT22;54079;44.540;18.784;2023-12-04T13:08:23;6.00;52.60
55777;DHT22;54079;44.540;18.784;2023-12-04T13:10:49;6.10;51.30
55777;DHT22;54079;44.540;18.784;2023-12-04T13:13:16;6.30;51.30
55777;DHT22;54079;44.540;18.784;2023-12-04T13:15:42;6.40;50.10
55777;DHT22;54079;44.540;18.784;2023-12-04T13:18:09;6.20;51.40
55777;DHT22;54079;44.540;18.784;2023-12-04T13:20:35;6.20;51.00
55777;DHT22;54079;44.540;18.784;2023-12-04T13:23:01;5.70;50.80
55777;DHT22;54079;44.540;18.784;2023-12-04T13:25:27;5.70;50.80
55777;DHT22;54079;44.540;18.784;2023-12-04T13:27:54;5.90;51.40
55777;DHT22;54079;44.540;18.784;2023-12-04T13:30:20;6.10;51.00
55777;DHT22;54079;44.540;18.784;2023-12-04T13:32:46;6.20;52.10
55777;DHT22;54079;44.540;18.784;2023-12-04T13:35:12;6.40;52.60
55777;DHT22;54079;44.540;18.784;2023-12-04T13:37:40;6.60;51.20
55777;DHT22;54079;44.540;18.784;2023-12-04T13:40:06;6.70;51.90
55777;DHT22;54079;44.540;18.784;2023-12-04T13:42:34;6.90;52.50
55777;DHT22;54079;44.540;18.784;2023-12-04T13:45:19;7.00;50.80
55777;DHT22;54079;44.540;18.784;2023-12-04T13:47:51;7.10;53.40
55777;DHT22;54079;44.540;18.784;2023-12-04T13:50:19;7.30;51.10
55777;DHT22;54079;44.540;18.784;2023-12-04T13:52:45;7.50;50.60
55777;DHT22;54079;44.540;18.784;2023-12-04T13:55:18;7.50;53.60
55777;DHT22;54079;44.540;18.784;2023-12-04T13:57:57;7.50;52.10
55777;DHT22;54079;44.540;18.784;2023-12-04T14:00:25;7.40;50.70
55777;DHT22;54079;44.540;18.784;2023-12-04T14:02:51;7.50;51.00
55777;DHT22;54079;44.540;18.784;2023-12-04T14:05:30;7.30;49.90
55777;DHT22;54079;44.540;18.784;2023-12-04T14:07:56;7.20;50.70
55777;DHT22;54079;44.540;18.784;2023-12-04T14:10:27;6.80;53.10
55777;DHT22;54079;44.540;18.784;2023-12-04T14:12:54;6.70;51.20
55777;DHT22;54079;44.540;18.784;2023-12-04T14:15:20;6.70;51.40
55777;DHT22;54079;44.540;18.784;2023-12-04T14:17:46;6.70;52.70
55777;DHT22;54079;44.540;18.784;2023-12-04T14:20:13;6.50;52.60
55777;DHT22;54079;44.540;18.784;2023-12-04T14:22:43;6.40;52.20
55777;DHT22;54079;44.540;18.784;2023-12-04T14:25:10;6.40;52.40
55777;DHT22;54079;44.540;18.784;2023-12-04T14:27:36;6.10;52.00
55777;DHT22;54079;44.540;18.784;2023-12-04T14:30:09;6.10;52.80
55777;DHT22;54079;44.540;18.784;2023-12-04T14:32:35;6.20;51.80
55777;DHT22;54079;44.540;18.784;2023-12-04T14:35:04;6.30;52.50
55777;DHT22;54079;44.540;18.784;2023-12-04T14:37:31;6.40;52.70
55777;DHT22;54079;44.540;18.784;2023-12-04T14:39:57;6.40;53.20
55777;DHT22;54079;44.540;18.784;2023-12-04T14:42:23;6.50;53.30
55777;DHT22;54079;44.540;18.784;2023-12-04T14:44:50;6.40;52.60
55777;DHT22;54079;44.540;18.784;2023-12-04T14:47:16;6.40;52.50
55777;DHT22;54079;44.540;18.784;2023-12-04T14:49:42;6.20;53.30
55777;DHT22;54079;44.540;18.784;2023-12-04T14:52:07;6.20;53.80
55777;DHT22;54079;44.540;18.784;2023-12-04T14:54:33;6.20;53.40
55777;DHT22;54079;44.540;18.784;2023-12-04T14:57:18;6.10;53.60
55777;DHT22;54079;44.540;18.784;2023-12-04T14:59:44;5.80;55.40
55777;DHT22;54079;44.540;18.784;2023-12-04T15:02:22;5.80;54.10
55777;DHT22;54079;44.540;18.784;2023-12-04T15:05:11;5.70;55.70
55777;DHT22;54079;44.540;18.784;2023-12-04T15:07:49;5.80;55.00
55777;DHT22;54079;44.540;18.784;2023-12-04T15:10:33;5.50;54.40
55777;DHT22;54079;44.540;18.784;2023-12-04T15:13:18;5.40;56.10
55777;DHT22;54079;44.540;18.784;2023-12-04T15:16:02;5.50;55.60
55777;DHT22;54079;44.540;18.784;2023-12-04T15:18:46;5.70;56.00
55777;DHT22;54079;44.540;18.784;2023-12-04T15:21:18;5.70;56.20
55777;DHT22;54079;44.540;18.784;2023-12-04T15:23:44;5.60;55.90
55777;DHT22;54079;44.540;18.784;2023-12-04T15:26:10;5.60;57.30